Time;durP1;ratioP1;P1;durP2;ratioP2;P2;SDS_P1;SDS_P2;PMS_P1;PMS_P2;Temp;Humidity;BMP_temperature;BMP_pressure;BME280_temperature;BME280_humidity;BME280_pressure;Samples;Min_cycle;Max_cycle;Signal;HPM_P1;HPM_P2
2021/09/17 00:00:46;;;;;;;16.38;8.65;;;;;;;29.15;64.09;100888.50;5032784;28;69746;-39
2021/09/17 00:03:17;;;;;;;12.68;11.77;;;;;;;29.18;66.27;100893.47;5033768;27;66758;-38
2021/09/17 00:05:49;;;;;;;20.83;11.70;;;;;;;29.24;67.55;100886.41;5032034;28;70347;-39
2021/09/17 00:08:20;;;;;;;14.00;12.77;;;;;;;29.28;68.09;100899.28;5031537;28;66724;-39
2021/09/17 00:10:51;;;;;;;14.00;12.55;;;;;;;29.41;68.58;100917.34;5032394;28;68627;-39
2021/09/17 00:13:23;;;;;;;15.85;14.23;;;;;;;29.46;68.92;100911.31;5036503;28;66111;-39
2021/09/17 00:16:17;;;;;;;15.45;13.95;;;;;;;29.52;69.14;100924.00;5043770;28;70181;-39
2021/09/17 00:19:01;;;;;;;19.27;15.60;;;;;;;29.50;70.03;100928.78;5039011;28;66158;-39
2021/09/17 00:21:45;;;;;;;17.58;16.02;;;;;;;29.57;70.64;100929.59;5036163;28;69593;-40
2021/09/17 00:24:23;;;;;;;20.95;17.33;;;;;;;29.60;70.65;100935.41;5037617;28;66364;-40
2021/09/17 00:27:07;;;;;;;19.92;16.58;;;;;;;29.59;71.51;100939.16;5034965;28;70180;-39
2021/09/17 00:29:44;;;;;;;19.95;17.23;;;;;;;29.60;71.64;100932.72;5037651;28;65904;-40
2021/09/17 00:32:21;;;;;;;17.85;16.20;;;;;;;29.60;71.83;100935.41;5043308;28;69581;-40
2021/09/17 00:34:54;;;;;;;18.80;17.15;;;;;;;29.70;71.05;100950.38;5043952;28;66064;-39
2021/09/17 00:37:34;;;;;;;25.25;17.92;;;;;;;29.66;71.28;100944.59;5036637;28;70257;-38
2021/09/17 00:40:22;;;;;;;20.73;17.30;;;;;;;29.69;72.02;100946.03;5032966;28;66662;-38
2021/09/17 00:43:03;;;;;;;24.25;17.58;;;;;;;29.69;71.75;100949.56;5036704;28;70123;-37
2021/09/17 00:45:47;;;;;;;18.83;17.02;;;;;;;29.64;72.05;100941.25;5041131;28;66162;-37
2021/09/17 00:48:35;;;;;;;21.20;18.30;;;;;;;29.75;71.65;100958.72;5021546;28;69852;-37
2021/09/17 00:51:23;;;;;;;21.35;16.85;;;;;;;29.32;71.92;100900.53;5037802;28;65714;-37
2021/09/17 00:54:11;;;;;;;22.05;17.92;;;;;;;29.68;71.56;100945.22;5039075;28;70009;-37
2021/09/17 00:57:04;;;;;;;17.73;15.93;;;;;;;29.68;71.71;100949.78;5040832;28;65272;-38
2021/09/17 01:00:13;;;;;;;20.45;16.92;;;;;;;29.40;72.22;100918.41;5030472;28;69465;-38
2021/09/17 01:03:24;;;;;;;;;;;;;;;29.57;72.68;100978.25;5049523;28;65983;-38
2021/09/17 01:06:12;;;;;;;17.40;15.68;;;;;;;29.84;71.74;100989.91;5038607;28;70410;-38
2021/09/17 01:09:03;;;;;;;16.90;15.23;;;;;;;29.87;72.37;100994.91;5005649;28;66834;-38
2021/09/17 01:11:52;;;;;;;16.10;14.63;;;;;;;29.89;72.00;100994.66;5033282;28;70413;-38
2021/09/17 01:15:13;;;;;;;15.40;14.07;;;;;;;28.79;72.21;100857.28;5032803;28;66480;-38
2021/09/17 01:18:12;;;;;;;15.02;13.68;;;;;;;29.56;72.41;100938.72;5034642;28;69268;-38
2021/09/17 01:21:10;;;;;;;15.05;13.80;;;;;;;29.94;72.32;100994.88;5029190;28;66081;-37
2021/09/17 01:23:53;;;;;;;13.60;12.50;;;;;;;29.96;72.22;100999.03;4982423;28;70002;-37
2021/09/17 01:26:47;;;;;;;14.48;13.27;;;;;;;29.98;72.82;101002.34;5020521;28;66088;-38
2021/09/17 01:29:58;;;;;;;13.93;12.73;;;;;;;29.99;72.76;100997.78;5037831;28;68746;-38
2021/09/17 01:32:46;;;;;;;;;;;;;;;29.84;73.62;101003.44;5039737;28;65677;-38
2021/09/17 01:35:33;;;;;;;12.52;11.60;;;;;;;30.08;72.32;101007.31;5027000;28;69806;-38
2021/09/17 01:38:22;;;;;;;11.55;10.68;;;;;;;30.10;72.84;100999.81;5000586;28;65981;-37
2021/09/17 01:41:14;;;;;;;12.18;11.23;;;;;;;30.12;72.57;100994.22;5030617;28;69413;-38
2021/09/17 01:43:53;;;;;;;11.15;10.35;;;;;;;29.89;72.60;100948.69;5036403;28;67275;-38
2021/09/17 01:46:32;;;;;;;11.40;10.60;;;;;;;30.14;72.12;100989.41;5031815;28;70020;-38
2021/09/17 01:49:19;;;;;;;12.23;11.30;;;;;;;30.11;72.20;100979.84;5023630;28;67113;-38
2021/09/17 01:52:11;;;;;;;11.00;10.20;;;;;;;30.14;72.12;100984.81;5031449;28;69259;-38
2021/09/17 01:54:59;;;;;;;11.23;10.27;;;;;;;30.18;72.22;100991.47;5042460;28;66124;-38
2021/09/17 01:57:42;;;;;;;11.15;10.35;;;;;;;30.21;72.32;100993.75;5037069;28;69674;-37
2021/09/17 02:00:30;;;;;;;10.77;9.88;;;;;;;30.24;72.72;100993.38;5029325;28;66894;-38
2021/09/17 02:03:07;;;;;;;10.80;10.00;;;;;;;30.25;72.58;100992.31;5017085;28;72442;-39
2021/09/17 02:06:09;;;;;;;10.82;9.80;;;;;;;30.25;72.59;100989.59;5027768;28;66151;-37
2021/09/17 02:08:56;;;;;;;12.05;11.13;;;;;;;30.28;72.60;100986.50;5020525;28;69882;-40
2021/09/17 02:11:43;;;;;;;11.35;10.27;;;;;;;30.30;72.22;100988.16;5031321;28;66241;-39
2021/09/17 02:14:23;;;;;;;;;;;;;;;30.08;73.48;100985.69;5012877;28;69984;-38
2021/09/17 02:17:16;;;;;;;10.13;9.23;;;;;;;30.34;72.33;100978.53;5034141;28;66596;-39
2021/09/17 02:19:55;;;;;;;11.38;10.00;;;;;;;30.36;72.27;100979.16;5005367;28;69917;-38
2021/09/17 02:22:35;;;;;;;10.38;9.35;;;;;;;30.37;72.46;100972.69;4975151;28;65371;-38
2021/09/17 02:25:36;;;;;;;15.13;9.80;;;;;;;30.39;73.23;100970.63;5035937;28;69086;-38
2021/09/17 02:28:09;;;;;;;11.75;9.88;;;;;;;30.44;74.02;100966.22;5030792;28;66379;-37
2021/09/17 02:30:57;;;;;;;9.63;8.90;;;;;;;30.35;73.54;100945.88;5030199;28;69293;-38
2021/09/17 02:33:32;;;;;;;16.70;10.05;;;;;;;30.53;73.21;100960.56;5035593;28;66721;-37
2021/09/17 02:36:18;;;;;;;10.57;9.50;;;;;;;30.54;72.46;100952.22;5041777;28;70613;-38
2021/09/17 02:39:07;;;;;;;10.15;9.25;;;;;;;30.60;72.35;100956.78;5016994;28;66312;-38
2021/09/17 02:41:54;;;;;;;9.90;8.93;;;;;;;30.33;72.12;100917.34;5024868;28;69054;-38
2021/09/17 02:45:01;;;;;;;9.40;8.80;;;;;;;30.57;71.70;100950.97;5024354;28;65063;-37
2021/09/17 02:47:40;;;;;;;10.80;8.80;;;;;;;30.63;72.20;100956.34;4995296;28;70371;-38
2021/09/17 02:50:27;;;;;;;11.20;10.20;;;;;;;30.64;71.15;100957.97;5031130;28;67171;-38
2021/09/17 02:53:06;;;;;;;11.00;9.63;;;;;;;30.70;70.99;100957.13;5015311;28;69362;-37
2021/09/17 02:55:51;;;;;;;10.27;9.27;;;;;;;30.72;71.06;100944.19;5031899;28;65712;-37
2021/09/17 02:58:33;;;;;;;10.20;9.50;;;;;;;30.73;71.51;100948.56;5030491;28;70027;-38
2021/09/17 03:01:18;;;;;;;9.70;8.98;;;;;;;30.79;71.16;100948.75;5035318;28;65463;-39
2021/09/17 03:03:53;;;;;;;9.73;9.00;;;;;;;30.42;71.23;100883.56;5035222;28;70166;-37
2021/09/17 03:06:34;;;;;;;10.27;9.40;;;;;;;30.84;70.76;100935.41;5042468;28;65529;-37
2021/09/17 03:09:18;;;;;;;10.48;9.02;;;;;;;30.83;70.20;100939.16;5040041;28;70283;-37
2021/09/17 03:11:51;;;;;;;9.10;8.20;;;;;;;30.86;69.55;100936.03;5038290;28;65956;-38
2021/09/17 03:14:29;;;;;;;10.23;9.35;;;;;;;30.90;69.35;100929.94;5036211;28;69888;-38
2021/09/17 03:17:10;;;;;;;8.80;8.10;;;;;;;30.92;69.66;100929.72;5032038;28;65353;-37
2021/09/17 03:19:58;;;;;;;8.98;8.20;;;;;;;30.98;69.58;100926.16;5026231;28;69919;-39
2021/09/17 03:22:33;;;;;;;8.68;8.07;;;;;;;30.71;69.98;100888.38;5036394;28;65366;-37
2021/09/17 03:25:18;;;;;;;8.30;7.70;;;;;;;31.03;69.86;100933.59;5040838;28;70008;-38
2021/09/17 03:27:52;;;;;;;10.77;8.23;;;;;;;30.97;69.22;100919.06;5020314;28;65111;-38
2021/09/17 03:30:38;;;;;;;9.50;8.55;;;;;;;31.04;69.66;100930.69;5045990;28;70252;-39
2021/09/17 03:33:12;;;;;;;8.70;7.80;;;;;;;30.99;70.21;100919.69;5022595;28;65390;-38
2021/09/17 03:35:58;;;;;;;9.77;8.80;;;;;;;31.04;69.16;100930.69;5012900;28;69690;-42
2021/09/17 03:38:42;;;;;;;8.80;8.07;;;;;;;31.02;67.90;100932.78;5016775;28;66185;-42
2021/09/17 03:41:28;;;;;;;9.00;8.38;;;;;;;31.04;68.87;100925.28;5028406;28;70286;-39
2021/09/17 03:44:10;;;;;;;8.65;7.95;;;;;;;31.01;69.83;100925.72;5032921;28;66911;-40
2021/09/17 03:46:43;;;;;;;10.38;9.38;;;;;;;31.04;70.29;100936.09;5037009;28;69545;-40
2021/09/17 03:49:23;;;;;;;9.20;8.50;;;;;;;31.04;70.98;100932.56;5032045;28;65799;-43
2021/09/17 03:51:56;;;;;;;10.20;8.90;;;;;;;31.03;71.01;100923.59;5025185;28;69196;-39
2021/09/17 03:54:28;;;;;;;9.48;8.88;;;;;;;31.02;71.71;100930.06;5049545;28;66397;-39
2021/09/17 03:57:03;;;;;;;9.02;8.35;;;;;;;31.01;72.06;100920.28;5000223;28;71681;-39
2021/09/17 03:59:36;;;;;;;9.65;8.82;;;;;;;31.03;71.72;100915.47;5031283;28;66426;-38
2021/09/17 04:02:08;;;;;;;9.43;8.45;;;;;;;31.04;72.63;100919.03;5032150;28;69824;-39
2021/09/17 04:04:54;;;;;;;9.32;8.70;;;;;;;30.92;72.75;100911.63;5036375;28;66902;-40
2021/09/17 04:07:25;;;;;;;8.70;8.23;;;;;;;30.94;72.82;100904.06;5047228;28;69710;-39
2021/09/17 04:09:56;;;;;;;9.45;8.82;;;;;;;31.02;72.83;100913.81;5039309;28;65357;-39
2021/09/17 04:12:28;;;;;;;9.18;8.32;;;;;;;31.05;73.35;100907.94;5038972;28;70096;-40
2021/09/17 04:15:00;;;;;;;;;;;;;;;30.85;73.97;100912.69;5035281;28;66599;-39
2021/09/17 04:17:41;;;;;;;10.38;9.77;;;;;;;31.08;73.64;100904.78;5043189;28;70079;-39
2021/09/17 04:20:14;;;;;;;11.25;10.45;;;;;;;31.02;73.66;100889.44;5041244;28;66060;-38
2021/09/17 04:22:46;;;;;;;14.00;12.80;;;;;;;31.08;73.78;100904.78;5037104;28;69871;-39
2021/09/17 04:25:17;;;;;;;18.08;16.25;;;;;;;31.09;73.65;100887.50;5034859;28;65651;-40
2021/09/17 04:27:48;;;;;;;;;;;;;;;30.90;74.73;100883.91;5031003;28;70294;-39
2021/09/17 04:30:24;;;;;;;26.65;24.02;;;;;;;31.12;73.92;100887.06;5015867;28;65962;-39
2021/09/17 04:32:56;;;;;;;28.48;24.02;;;;;;;31.15;74.57;100889.31;5035120;27;69794;-38
2021/09/17 04:35:28;;;;;;;24.88;21.75;;;;;;;31.18;73.42;100888.06;5038096;28;65219;-39
2021/09/17 04:37:59;;;;;;;;;;;;;;;30.94;72.65;100889.72;5035345;28;69416;-39
2021/09/17 04:40:31;;;;;;;19.75;17.65;;;;;;;31.12;72.04;100884.34;5036820;28;65420;-39
2021/09/17 04:43:03;;;;;;;20.35;16.33;;;;;;;31.20;72.49;100882.41;5034498;28;70936;-38
2021/09/17 04:45:34;;;;;;;16.38;14.82;;;;;;;31.20;71.23;100879.69;5038398;28;66362;-39
2021/09/17 04:48:14;;;;;;;14.20;12.98;;;;;;;31.15;70.81;100864.94;5034232;28;69417;-39
2021/09/17 04:50:45;;;;;;;13.05;11.95;;;;;;;31.27;70.60;100865.03;5038719;28;64952;-39
2021/09/17 04:53:17;;;;;;;12.90;11.73;;;;;;;31.28;69.87;100860.44;5035801;28;70401;-40
2021/09/17 04:55:48;;;;;;;11.18;10.20;;;;;;;31.29;70.05;100856.69;5038596;28;64958;-39
2021/09/17 04:58:40;;;;;;;11.90;11.00;;;;;;;31.30;71.02;100844.78;5030056;28;70438;-39
2021/09/17 05:01:13;;;;;;;12.13;11.20;;;;;;;31.35;70.59;100834.09;5035900;28;66339;-37
2021/09/17 05:03:44;;;;;;;11.13;10.23;;;;;;;31.36;70.46;100835.78;5034762;28;69446;-37
2021/09/17 05:06:16;;;;;;;11.50;10.68;;;;;;;31.34;70.74;100827.00;5039251;28;65834;-37
2021/09/17 05:08:48;;;;;;;10.63;9.73;;;;;;;31.35;69.79;100834.09;5040002;28;70031;-37
2021/09/17 05:11:19;;;;;;;10.05;9.35;;;;;;;31.39;69.72;100827.19;5027929;28;65300;-36
2021/09/17 05:13:50;;;;;;;9.45;8.73;;;;;;;31.37;69.65;100815.75;5035170;28;68388;-36
2021/09/17 05:16:22;;;;;;;8.50;7.90;;;;;;;31.32;67.68;100810.16;5006102;28;66347;-37
2021/09/17 05:18:54;;;;;;;10.73;8.30;;;;;;;31.26;66.39;100803.75;5035647;28;69813;-36
2021/09/17 05:21:26;;;;;;;11.23;7.17;;;;;;;31.04;65.04;100776.28;5040764;28;66575;-37
2021/09/17 05:23:58;;;;;;;7.47;6.97;;;;;;;31.02;64.67;100791.91;5038042;28;69057;-38
2021/09/17 05:26:29;;;;;;;8.85;8.10;;;;;;;30.89;64.10;100782.00;5037384;28;66187;-38
2021/09/17 05:29:01;;;;;;;8.10;7.50;;;;;;;30.91;63.93;100789.94;5019296;28;70355;-39
2021/09/17 05:31:33;;;;;;;8.35;7.32;;;;;;;30.86;63.06;100792.47;5043966;28;66339;-36
2021/09/17 05:34:05;;;;;;;7.40;6.78;;;;;;;30.46;62.37;100733.22;5033619;28;69354;-37
2021/09/17 05:36:37;;;;;;;13.48;6.28;;;;;;;30.72;61.62;100787.13;5038940;28;65801;-36
2021/09/17 05:39:08;;;;;;;14.02;5.55;;;;;;;30.68;60.40;100785.94;5017781;28;69486;-37
2021/09/17 05:41:40;;;;;;;18.48;6.30;;;;;;;30.64;59.82;100770.34;5036783;28;65817;-35
2021/09/17 05:44:12;;;;;;;13.38;5.93;;;;;;;30.45;59.65;100753.22;5034606;28;70077;-37
2021/09/17 05:46:43;;;;;;;13.93;6.47;;;;;;;30.43;58.68;100745.34;5037489;28;65531;-36
2021/09/17 05:49:15;;;;;;;7.95;6.00;;;;;;;30.44;58.73;100748.88;5035186;28;70271;-36
2021/09/17 05:51:47;;;;;;;26.50;6.43;;;;;;;30.42;57.78;100753.66;5037983;28;65553;-36
2021/09/17 05:54:36;;;;;;;12.00;5.53;;;;;;;30.40;58.01;100742.25;5034949;28;69950;-36
2021/09/17 05:57:24;;;;;;;23.38;5.80;;;;;;;30.30;57.13;100733.78;5035062;28;65954;-36
2021/09/17 05:59:58;;;;;;;10.35;5.25;;;;;;;30.35;56.83;100748.31;5026391;28;70215;-36
2021/09/17 06:02:46;;;;;;;6.78;5.20;;;;;;;30.34;55.85;100734.97;5017743;28;66498;-37
2021/09/17 06:05:33;;;;;;;7.35;4.90;;;;;;;30.30;55.48;100733.78;5034770;28;69851;-36
2021/09/17 06:08:21;;;;;;;9.70;5.85;;;;;;;30.18;55.06;100704.69;5013107;28;65273;-36
2021/09/17 06:10:52;;;;;;;;;;;;;;;30.09;54.40;100726.81;5034078;28;71396;-36
2021/09/17 06:13:24;;;;;;;7.07;3.92;;;;;;;30.26;54.24;100723.41;5030912;28;65544;-36
2021/09/17 06:15:55;;;;;;;5.45;4.95;;;;;;;30.28;54.05;100721.31;5035036;28;70010;-36
2021/09/17 06:18:43;;;;;;;4.93;3.97;;;;;;;30.33;53.46;100717.09;5019733;28;66102;-36
2021/09/17 06:21:17;;;;;;;11.02;4.20;;;;;;;30.33;53.15;100707.09;5031145;28;70367;-36
2021/09/17 06:23:50;;;;;;;5.07;3.85;;;;;;;30.32;52.37;100697.34;5032984;28;66290;-36
2021/09/17 06:26:31;;;;;;;4.00;3.70;;;;;;;30.35;52.35;100687.94;5047706;28;70299;-36
2021/09/17 06:29:03;;;;;;;;;;;;;;;30.13;52.11;100685.59;5028737;28;66157;-35
2021/09/17 06:31:40;;;;;;;7.63;3.85;;;;;;;30.35;51.00;100679.84;5029976;28;69492;-36
2021/09/17 06:34:16;;;;;;;5.10;3.88;;;;;;;30.32;50.70;100655.91;5022619;28;66307;-36
2021/09/17 06:36:51;;;;;;;3.90;3.60;;;;;;;30.43;51.49;100657.91;5038574;28;70258;-37
2021/09/17 06:39:41;;;;;;;3.20;3.00;;;;;;;30.45;50.08;100655.78;5037170;28;66004;-37
2021/09/17 06:42:21;;;;;;;4.05;3.67;;;;;;;30.44;49.88;100654.13;5029606;28;69858;-36
2021/09/17 06:45:07;;;;;;;3.50;3.30;;;;;;;30.53;49.82;100651.97;5030524;28;66047;-36
2021/09/17 06:47:53;;;;;;;3.30;3.00;;;;;;;30.48;48.95;100663.47;5030062;28;70271;-37
2021/09/17 06:50:32;;;;;;;3.67;3.40;;;;;;;30.46;49.39;100644.75;5043750;28;66416;-36
2021/09/17 06:53:07;;;;;;;3.70;3.40;;;;;;;30.56;48.42;100646.91;5029359;28;70339;-35
2021/09/17 06:55:47;;;;;;;2.58;2.38;;;;;;;30.56;48.44;100635.28;5030655;28;66037;-37
2021/09/17 06:58:34;;;;;;;2.88;2.67;;;;;;;30.49;47.83;100619.94;4981382;28;70499;-36
2021/09/17 07:01:30;;;;;;;5.18;2.78;;;;;;;30.63;48.30;100625.22;4996159;28;66361;-36
2021/09/17 07:04:04;;;;;;;2.72;2.53;;;;;;;30.64;48.08;100616.84;5010401;28;69283;-35
2021/09/17 07:06:43;;;;;;;3.13;2.90;;;;;;;30.67;47.90;100615.56;5032819;28;65304;-36
2021/09/17 07:09:33;;;;;;;3.38;3.08;;;;;;;30.63;47.56;100598.97;5032739;28;70780;-36
2021/09/17 07:12:30;;;;;;;2.80;2.60;;;;;;;30.68;47.25;100607.25;5031760;28;66390;-37
2021/09/17 07:15:06;;;;;;;2.70;2.50;;;;;;;30.65;46.90;100591.44;5036019;28;70459;-38
2021/09/17 07:17:56;;;;;;;2.80;2.60;;;;;;;30.69;47.24;100592.63;5011308;28;65478;-37
2021/09/17 07:20:48;;;;;;;3.17;2.88;;;;;;;30.73;47.58;100596.56;4973095;28;69027;-36
2021/09/17 07:23:22;;;;;;;3.28;2.90;;;;;;;30.77;47.86;100601.53;5027435;28;66496;-38
2021/09/17 07:26:04;;;;;;;2.40;2.20;;;;;;;30.69;47.04;100576.41;5028693;28;70560;-37
2021/09/17 07:28:42;;;;;;;2.60;2.45;;;;;;;30.82;46.53;100586.28;5010834;28;66562;-38
2021/09/17 07:31:48;;;;;;;2.42;2.30;;;;;;;30.82;46.26;100588.16;5024501;28;69207;-37
2021/09/17 07:34:38;;;;;;;3.20;3.00;;;;;;;30.81;46.41;100594.63;5025091;28;65754;-38
2021/09/17 07:37:37;;;;;;;2.60;2.40;;;;;;;30.80;45.93;100598.41;5023019;28;69741;-39
2021/09/17 07:40:22;;;;;;;2.63;2.30;;;;;;;30.76;45.67;100580.91;5016054;28;66310;-38
2021/09/17 07:42:56;;;;;;;2.75;2.55;;;;;;;30.82;45.54;100580.03;4988505;28;69999;-38
2021/09/17 07:45:40;;;;;;;2.58;2.38;;;;;;;30.83;47.78;100565.44;5029159;28;65505;-38
2021/09/17 07:48:25;;;;;;;3.22;3.03;;;;;;;30.85;48.93;100560.63;5031892;28;69954;-38
2021/09/17 07:51:01;;;;;;;3.10;2.90;;;;;;;30.77;48.11;100539.25;5019044;28;65983;-38
2021/09/17 07:53:46;;;;;;;3.50;3.20;;;;;;;30.82;47.65;100547.56;5041268;28;69389;-39
2021/09/17 07:56:22;;;;;;;2.40;2.20;;;;;;;30.76;46.54;100541.13;5014791;28;66318;-39
2021/09/17 07:59:07;;;;;;;4.65;2.50;;;;;;;30.87;48.08;100553.09;5024317;28;71063;-39
2021/09/17 08:01:40;;;;;;;3.08;2.88;;;;;;;30.87;47.86;100555.78;5035131;28;65764;-39
2021/09/17 08:04:26;;;;;;;3.50;3.30;;;;;;;30.85;48.69;100555.22;5012077;28;69229;-40
2021/09/17 08:07:02;;;;;;;2.28;2.17;;;;;;;30.87;48.62;100544.97;5018097;28;65604;-38
2021/09/17 08:09:39;;;;;;;3.22;3.03;;;;;;;30.88;47.87;100535.81;5026584;28;69589;-39
2021/09/17 08:12:24;;;;;;;3.05;2.85;;;;;;;30.77;47.49;100520.28;5029681;28;65590;-39
2021/09/17 08:15:06;;;;;;;3.20;3.00;;;;;;;30.86;46.81;100546.03;5022697;28;70381;-38
2021/09/17 08:17:53;;;;;;;2.42;2.22;;;;;;;30.88;46.72;100557.47;5028919;28;66683;-38
2021/09/17 08:20:30;;;;;;;2.65;2.17;;;;;;;30.88;47.25;100557.47;5037513;28;69772;-40
2021/09/17 08:23:11;;;;;;;2.67;2.47;;;;;;;30.89;46.67;100548.28;5029197;28;66075;-40
2021/09/17 08:26:09;;;;;;;2.78;2.58;;;;;;;30.90;46.78;100550.78;5100008;27;43655;-38
2021/09/17 08:28:51;;;;;;;4.90;2.75;;;;;;;30.75;47.44;100519.69;5082820;27;69868;-38
2021/09/17 08:31:54;;;;;;;7.38;3.10;;;;;;;30.86;48.39;100533.31;5086447;27;66384;-38
2021/09/17 08:34:54;;;;;;;4.57;4.28;;;;;;;30.96;50.73;100557.16;5083715;27;70611;-38
2021/09/17 08:37:58;;;;;;;6.15;5.00;;;;;;;30.98;50.08;100551.50;5085714;27;67531;-39
2021/09/17 08:40:53;;;;;;;5.50;5.10;;;;;;;31.07;52.43;100550.97;5089675;27;70140;-37
2021/09/17 08:43:37;;;;;;;6.50;6.00;;;;;;;31.22;56.54;100552.41;5092673;27;65672;-37
2021/09/17 08:46:26;;;;;;;5.32;4.95;;;;;;;31.37;57.65;100539.28;5108243;27;70159;-38
2021/09/17 08:49:11;;;;;;;6.25;5.85;;;;;;;31.46;57.28;100546.03;5124740;27;65739;-38
2021/09/17 08:51:48;;;;;;;6.18;5.68;;;;;;;31.55;57.70;100558.19;5091712;27;70010;-38
2021/09/17 08:54:23;;;;;;;6.05;5.57;;;;;;;31.60;58.28;100549.38;5072776;27;64702;-38
2021/09/17 08:57:07;;;;;;;6.85;5.85;;;;;;;31.68;58.44;100542.75;5088234;27;70227;-39
2021/09/17 09:00:03;;;;;;;6.22;5.82;;;;;;;31.70;59.90;100551.50;5088837;27;65511;-38
2021/09/17 09:02:47;;;;;;;13.70;5.50;;;;;;;31.76;60.56;100554.13;5070196;27;69930;-38
2021/09/17 09:05:34;;;;;;;8.73;5.60;;;;;;;31.84;60.86;100561.06;5085887;27;65749;-36
2021/09/17 09:08:06;;;;;;;10.63;6.10;;;;;;;31.53;60.53;100499.84;5081740;27;70042;-38
2021/09/17 09:10:48;;;;;;;14.48;5.88;;;;;;;31.97;62.57;100579.84;5091673;27;66379;-38
2021/09/17 09:13:34;;;;;;;7.57;5.85;;;;;;;32.01;61.94;100578.34;5089803;27;71311;-38
2021/09/17 09:16:29;;;;;;;9.35;6.20;;;;;;;32.03;62.87;100573.47;5087826;27;66051;-38
2021/09/17 09:19:27;;;;;;;6.40;6.00;;;;;;;32.00;62.98;100565.81;5090340;27;69631;-37
2021/09/17 09:22:14;;;;;;;7.43;6.88;;;;;;;32.10;62.75;100567.13;5073214;27;66531;-38
2021/09/17 09:24:47;;;;;;;6.75;6.22;;;;;;;32.08;63.16;100561.13;5085739;27;69719;-38
2021/09/17 09:27:31;;;;;;;6.40;6.00;;;;;;;31.92;63.41;100539.03;5078906;27;66831;-39
2021/09/17 09:30:06;;;;;;;6.57;6.07;;;;;;;32.15;63.72;100550.94;5090822;27;70477;-40
2021/09/17 09:32:38;;;;;;;6.30;5.70;;;;;;;32.13;63.33;100553.09;5074013;27;65650;-37
2021/09/17 09:35:17;;;;;;;5.80;5.40;;;;;;;32.15;63.46;100556.38;5075019;27;69231;-38
2021/09/17 09:37:50;;;;;;;6.38;5.78;;;;;;;32.12;62.98;100570.41;5079626;27;66546;-38
2021/09/17 09:40:24;;;;;;;5.85;5.45;;;;;;;31.64;63.03;100533.44;5078427;27;71104;-38
2021/09/17 09:43:01;;;;;;;5.57;4.72;;;;;;;32.10;63.22;100624.13;5073731;27;65852;-37
2021/09/17 09:45:42;;;;;;;5.60;5.20;;;;;;;32.08;63.93;100642.50;5076272;27;71756;-38
2021/09/17 09:48:14;;;;;;;5.28;4.78;;;;;;;32.09;63.81;100649.59;5073381;27;66226;-38
2021/09/17 09:50:48;;;;;;;11.48;4.38;;;;;;;32.10;63.14;100656.69;5073286;27;69208;-38
2021/09/17 09:53:24;;;;;;;4.80;4.40;;;;;;;32.07;63.61;100667.97;5085357;27;66087;-37
2021/09/17 09:56:02;;;;;;;4.35;3.95;;;;;;;32.01;62.38;100658.88;5077306;27;69177;-38
2021/09/17 09:58:35;;;;;;;4.20;3.90;;;;;;;32.01;63.54;100669.72;5071342;27;66437;-38
2021/09/17 10:01:07;;;;;;;4.00;3.50;;;;;;;32.01;63.86;100654.31;5079446;27;69882;-38
2021/09/17 10:03:59;;;;;;;3.97;3.58;;;;;;;32.05;63.69;100679.91;5074577;27;65046;-38
2021/09/17 10:06:39;;;;;;;4.05;3.63;;;;;;;32.00;64.12;100682.47;5074942;27;69495;-39
2021/09/17 10:09:12;;;;;;;5.40;3.35;;;;;;;31.65;64.01;100638.13;5056562;28;66752;-39
2021/09/17 10:11:49;;;;;;;4.15;3.00;;;;;;;31.93;63.70;100661.94;5073798;27;70077;-39
2021/09/17 10:14:26;;;;;;;4.20;3.33;;;;;;;32.04;64.12;100682.88;5082488;27;66127;-38
2021/09/17 10:17:07;;;;;;;4.50;3.42;;;;;;;32.04;64.28;100670.13;5072439;27;69250;-39
2021/09/17 10:19:55;;;;;;;7.03;3.90;;;;;;;31.98;64.89;100659.34;5067703;27;65813;-39
2021/09/17 10:22:44;;;;;;;8.80;4.03;;;;;;;31.65;65.10;100601.03;5069897;27;69980;-39
2021/09/17 10:25:25;;;;;;;11.70;4.97;;;;;;;31.94;65.17;100631.88;5096142;27;65417;-40
2021/09/17 10:28:14;;;;;;;8.70;3.70;;;;;;;31.97;65.18;100634.13;5068159;27;69491;-40
2021/09/17 10:31:14;;;;;;;5.22;4.30;;;;;;;31.60;64.89;100577.31;5083630;27;66198;-40
2021/09/17 10:34:40;;;;;;;8.10;4.25;;;;;;;31.98;64.88;100635.78;5089957;27;70198;-39
2021/09/17 10:37:54;;;;;;;20.13;4.00;;;;;;;31.96;64.76;100629.75;5064651;27;66265;-39
2021/09/17 10:40:38;;;;;;;6.43;4.18;;;;;;;32.01;64.69;100615.47;5064915;27;69515;-39
2021/09/17 10:43:11;;;;;;;5.68;4.05;;;;;;;32.00;64.56;100609.22;5069787;27;66157;-39
2021/09/17 10:45:53;;;;;;;4.70;4.32;;;;;;;31.58;63.93;100529.78;5070388;27;70210;-39
2021/09/17 10:48:26;;;;;;;4.00;3.70;;;;;;;31.99;63.43;100606.75;5073909;27;65176;-40
2021/09/17 10:51:02;;;;;;;3.33;3.13;;;;;;;31.94;63.40;100598.50;5056807;27;69844;-39
2021/09/17 10:53:40;;;;;;;4.70;4.30;;;;;;;31.97;63.28;100606.16;5067238;27;65648;-39
2021/09/17 10:56:29;;;;;;;4.35;4.05;;;;;;;31.95;62.77;100603.69;5070529;27;70084;-40
2021/09/17 10:59:23;;;;;;;6.18;4.28;;;;;;;31.93;62.84;100630.22;5069264;27;66330;-39
2021/09/17 11:02:08;;;;;;;4.75;4.35;;;;;;;31.56;62.56;100591.53;5067789;27;69901;-39
2021/09/17 11:04:45;;;;;;;5.97;4.75;;;;;;;31.90;61.94;100663.22;5074035;27;66277;-38
2021/09/17 11:07:25;;;;;;;5.47;5.07;;;;;;;31.89;61.79;100683.25;5067980;27;69661;-39
2021/09/17 11:09:59;;;;;;;4.97;4.57;;;;;;;31.88;62.05;100687.03;5069940;27;66169;-40
2021/09/17 11:12:43;;;;;;;5.13;4.68;;;;;;;31.85;61.56;100692.09;5074065;27;69877;-39
2021/09/17 11:15:21;;;;;;;5.85;4.80;;;;;;;31.85;61.53;100701.06;5070708;27;65867;-39
2021/09/17 11:17:56;;;;;;;5.82;4.38;;;;;;;31.82;61.37;100705.06;5056406;27;70137;-39
2021/09/17 11:20:32;;;;;;;5.70;5.15;;;;;;;31.72;61.89;100698.53;5042801;27;66179;-39
2021/09/17 11:23:07;;;;;;;5.55;5.05;;;;;;;31.82;61.62;100720.50;5069302;27;69451;-39
2021/09/17 11:25:45;;;;;;;7.35;4.32;;;;;;;31.81;61.48;100732.41;5071620;27;66368;-39
2021/09/17 11:28:29;;;;;;;7.13;4.15;;;;;;;31.77;62.00;100712.22;5073951;27;69145;-39
2021/09/17 11:31:13;;;;;;;10.25;4.28;;;;;;;31.76;61.82;100708.69;5070288;27;65146;-39
2021/09/17 11:33:58;;;;;;;4.35;3.83;;;;;;;31.77;61.63;100726.63;5071275;27;69235;-39
2021/09/17 11:36:41;;;;;;;7.57;3.75;;;;;;;31.83;62.29;100741.97;5076718;27;65437;-39
2021/09/17 11:39:33;;;;;;;3.97;3.67;;;;;;;31.80;61.50;100750.56;5075393;27;69996;-39
2021/09/17 11:42:17;;;;;;;3.92;3.63;;;;;;;31.78;61.33;100746.41;5077778;27;66553;-41
2021/09/17 11:44:52;;;;;;;5.32;3.30;;;;;;;31.74;61.00;100751.50;5082600;27;69864;-39
2021/09/17 11:47:32;;;;;;;13.60;4.10;;;;;;;31.67;61.45;100742.59;5042065;28;65917;-42
2021/09/17 11:50:13;;;;;;;5.63;3.20;;;;;;;31.74;62.00;100775.91;5065597;27;69170;-40
2021/09/17 11:52:51;;;;;;;3.72;3.28;;;;;;;31.37;62.21;100726.28;5079365;27;65563;-41
2021/09/17 11:55:28;;;;;;;20.85;3.97;;;;;;;31.61;62.68;100757.91;5050936;28;70040;-40
2021/09/17 11:58:13;;;;;;;3.60;3.15;;;;;;;31.71;63.02;100781.78;5065298;27;66709;-39
2021/09/17 12:00:58;;;;;;;4.85;3.85;;;;;;;31.75;63.28;100784.84;5068668;27;71342;-40
2021/09/17 12:03:39;;;;;;;4.80;3.20;;;;;;;31.79;63.14;100802.34;5066433;27;66371;-39
2021/09/17 12:06:22;;;;;;;4.47;3.15;;;;;;;31.79;63.87;100794.19;5052741;27;69235;-39
2021/09/17 12:08:57;;;;;;;;;;;;;;;31.59;64.83;100797.16;5063943;27;66309;-40
2021/09/17 12:11:36;;;;;;;9.40;3.42;;;;;;;31.78;64.14;100798.78;5070582;27;70367;-40
2021/09/17 12:14:10;;;;;;;4.53;3.63;;;;;;;31.80;63.97;100793.13;5067833;27;65803;-38
2021/09/17 12:16:48;;;;;;;12.02;3.80;;;;;;;31.77;63.59;100793.59;5090780;27;70158;-39
2021/09/17 12:19:25;;;;;;;3.65;3.35;;;;;;;31.65;62.19;100792.69;5069526;27;66000;-38
2021/09/17 12:22:01;;;;;;;4.70;3.53;;;;;;;31.49;60.44;100786.84;5066284;27;69190;-40
2021/09/17 12:24:46;;;;;;;3.40;3.10;;;;;;;31.44;59.47;100802.97;5071540;27;65268;-39
2021/09/17 12:27:30;;;;;;;3.70;3.30;;;;;;;31.33;57.80;100814.53;5057846;27;70468;-39